createdAt,value
2019-01-18T00:01:20.793Z,4.30
2019-01-18T00:03:50.275Z,3.70
2019-01-18T00:06:19.703Z,3.30
2019-01-18T00:08:49.176Z,3.00
2019-01-18T00:11:18.730Z,2.70
2019-01-18T00:13:48.086Z,2.60
2019-01-18T00:16:17.580Z,2.40
2019-01-18T00:18:46.968Z,2.30
2019-01-18T00:21:16.683Z,2.30
2019-01-18T00:23:46.100Z,2.10
2019-01-18T00:26:15.444Z,2.00
2019-01-18T00:28:44.933Z,1.90
2019-01-18T00:31:15.110Z,1.90
2019-01-18T00:33:44.556Z,1.80
2019-01-18T00:36:13.951Z,1.80
2019-01-18T00:38:43.495Z,1.80
2019-01-18T00:41:12.959Z,1.80
2019-01-18T00:43:42.458Z,1.80
2019-01-18T00:46:11.857Z,1.90
2019-01-18T00:48:41.208Z,1.80
2019-01-18T00:51:10.740Z,1.90
2019-01-18T00:53:40.270Z,1.90
2019-01-18T00:56:09.789Z,2.00
2019-01-18T00:58:39.166Z,2.10
2019-01-18T01:01:08.618Z,2.30
2019-01-18T01:03:38.272Z,2.30
2019-01-18T01:06:08.921Z,2.40
2019-01-18T01:08:38.414Z,2.40
2019-01-18T01:11:07.772Z,2.50
2019-01-18T01:13:37.187Z,2.60
2019-01-18T01:16:06.543Z,2.60
2019-01-18T01:18:35.944Z,2.60
2019-01-18T01:21:05.431Z,2.60
2019-01-18T01:23:34.981Z,2.60
2019-01-18T01:26:04.551Z,2.60
2019-01-18T01:28:33.920Z,2.50
2019-01-18T01:31:03.601Z,2.50
2019-01-18T01:33:33.016Z,2.50
2019-01-18T01:36:02.348Z,2.50
2019-01-18T01:38:31.739Z,2.60
2019-01-18T01:41:01.087Z,2.60
2019-01-18T01:43:30.533Z,2.60
2019-01-18T01:45:59.934Z,2.60
2019-01-18T01:48:29.288Z,2.60
2019-01-18T01:50:58.676Z,2.60
2019-01-18T01:53:28.048Z,2.60
2019-01-18T01:55:57.470Z,2.60
2019-01-18T01:58:26.974Z,2.50
2019-01-18T02:00:56.328Z,2.40
2019-01-18T02:03:25.701Z,2.30
2019-01-18T02:05:57.545Z,2.20
2019-01-18T02:08:26.921Z,2.20
2019-01-18T02:10:56.285Z,2.20
2019-01-18T02:13:25.689Z,2.10
2019-01-18T02:15:57.321Z,2.10
2019-01-18T02:18:26.680Z,2.10
2019-01-18T02:20:56.160Z,2.10
2019-01-18T02:23:25.534Z,2.10
2019-01-18T02:25:58.008Z,2.10
2019-01-18T02:28:27.396Z,2.10
2019-01-18T02:30:56.855Z,2.10
2019-01-18T02:33:26.317Z,2.20
2019-01-18T02:35:56.157Z,2.20
2019-01-18T02:38:25.680Z,2.20
2019-01-18T02:40:55.341Z,2.20
2019-01-18T02:43:24.695Z,2.20
2019-01-18T02:45:54.153Z,2.10
2019-01-18T02:48:23.650Z,2.10
2019-01-18T02:50:53.499Z,2.10
2019-01-18T02:53:23.011Z,2.00
2019-01-18T02:55:52.566Z,2.00
2019-01-18T02:58:22.093Z,2.10
2019-01-18T03:00:51.584Z,2.10
2019-01-18T03:03:21.316Z,2.10
2019-01-18T03:05:50.769Z,2.10
2019-01-18T03:08:20.184Z,2.10
2019-01-18T03:10:49.927Z,2.00
2019-01-18T03:13:19.348Z,1.90
2019-01-18T03:15:48.700Z,2.00
2019-01-18T03:18:18.148Z,1.90
2019-01-18T03:20:47.730Z,1.90
2019-01-18T03:23:17.148Z,1.90
2019-01-18T03:25:46.547Z,1.90
2019-01-18T03:28:15.929Z,1.80
2019-01-18T03:30:45.313Z,1.80
2019-01-18T03:33:14.910Z,1.80
2019-01-18T03:35:44.368Z,1.90
2019-01-18T03:38:13.742Z,1.90
2019-01-18T03:40:43.142Z,1.90
2019-01-18T03:43:15.557Z,1.90
2019-01-18T03:45:44.977Z,1.90
2019-01-18T03:48:14.367Z,2.00
2019-01-18T03:50:43.817Z,2.00
2019-01-18T03:53:13.268Z,2.00
2019-01-18T03:55:42.818Z,2.00
2019-01-18T03:58:12.169Z,2.00
2019-01-18T04:00:41.592Z,2.10
2019-01-18T04:03:11.001Z,2.10
2019-01-18T04:05:40.496Z,2.20
2019-01-18T04:08:09.914Z,2.10
2019-01-18T04:10:39.281Z,2.00
2019-01-18T04:13:08.740Z,2.00
2019-01-18T04:15:39.778Z,2.10
2019-01-18T04:18:09.107Z,2.10
2019-01-18T04:20:38.488Z,2.20
2019-01-18T04:23:08.194Z,2.30
2019-01-18T04:25:37.542Z,2.30
2019-01-18T04:28:06.923Z,2.30
2019-01-18T04:30:38.374Z,2.40
2019-01-18T04:33:07.890Z,2.40
2019-01-18T04:35:37.364Z,2.30
2019-01-18T04:38:06.714Z,2.30
2019-01-18T04:40:36.118Z,2.30
2019-01-18T04:43:05.694Z,2.20
2019-01-18T04:45:35.103Z,2.20
2019-01-18T04:48:04.698Z,2.20
2019-01-18T04:50:34.289Z,2.20
2019-01-18T04:53:03.691Z,2.10
2019-01-18T04:55:33.110Z,2.10
2019-01-18T04:58:02.503Z,2.10
2019-01-18T05:00:32.297Z,2.10
2019-01-18T05:03:01.648Z,2.00
2019-01-18T05:05:31.091Z,2.00
2019-01-18T05:08:00.508Z,2.10
2019-01-18T05:10:30.203Z,2.10
2019-01-18T05:12:59.906Z,2.10
2019-01-18T05:15:31.205Z,2.10
2019-01-18T05:18:00.874Z,2.20
2019-01-18T05:20:30.553Z,2.30
2019-01-18T05:23:00.174Z,2.40
2019-01-18T05:25:30.756Z,2.50
2019-01-18T05:28:00.131Z,2.40
2019-01-18T05:30:30.488Z,2.40
2019-01-18T05:33:00.056Z,2.30
2019-01-18T05:35:29.658Z,2.30
2019-01-18T05:37:59.597Z,2.20
2019-01-18T05:40:29.025Z,2.20
2019-01-18T05:43:00.424Z,2.20
2019-01-18T05:45:29.590Z,2.30
2019-01-18T05:48:01.578Z,2.30
2019-01-18T05:50:31.386Z,2.30
2019-01-18T05:53:04.652Z,2.20
2019-01-18T05:55:34.096Z,2.20
2019-01-18T05:58:03.537Z,2.30
2019-01-18T06:00:56.259Z,2.30
2019-01-18T06:03:25.814Z,2.30
2019-01-18T06:05:55.357Z,2.40
2019-01-18T06:08:24.887Z,2.40
2019-01-18T06:10:54.435Z,2.40
2019-01-18T06:13:23.869Z,2.40
2019-01-18T06:15:54.006Z,2.50
2019-01-18T06:18:23.479Z,2.50
2019-01-18T06:20:52.990Z,2.50
2019-01-18T06:23:22.502Z,2.40
2019-01-18T06:25:51.961Z,2.40
2019-01-18T06:28:21.519Z,2.40
2019-01-18T06:30:51.102Z,2.40
2019-01-18T06:33:20.511Z,2.30
2019-01-18T06:35:50.032Z,2.30
2019-01-18T06:38:19.390Z,2.40
2019-01-18T06:40:49.915Z,2.40
2019-01-18T06:43:19.278Z,2.40
2019-01-18T06:45:51.468Z,2.40
2019-01-18T06:48:22.680Z,2.50
2019-01-18T06:50:52.101Z,2.50
2019-01-18T06:53:21.460Z,2.60
2019-01-18T06:55:51.110Z,2.60
2019-01-18T06:58:20.484Z,2.60
2019-01-18T07:00:49.977Z,2.50
2019-01-18T07:03:19.422Z,2.40
2019-01-18T07:05:49.018Z,2.40
2019-01-18T07:08:18.503Z,2.50
2019-01-18T07:10:47.882Z,2.50
2019-01-18T07:13:17.695Z,2.70
2019-01-18T07:15:47.325Z,2.80
2019-01-18T07:18:16.993Z,2.80
2019-01-18T07:20:46.458Z,2.90
2019-01-18T07:23:15.814Z,2.80
2019-01-18T07:25:45.248Z,2.80
2019-01-18T07:28:14.994Z,2.80
2019-01-18T07:30:44.488Z,2.80
2019-01-18T07:33:17.609Z,2.80
2019-01-18T07:35:47.085Z,2.70
2019-01-18T07:38:19.603Z,2.50
2019-01-18T07:40:49.012Z,2.40
2019-01-18T07:43:18.396Z,2.50
2019-01-18T07:45:47.887Z,2.60
2019-01-18T07:48:17.431Z,2.60
2019-01-18T07:50:46.953Z,2.60
2019-01-18T07:53:16.503Z,2.60
2019-01-18T07:55:46.074Z,2.70
2019-01-18T07:58:15.508Z,2.70
2019-01-18T08:00:44.940Z,2.70
2019-01-18T08:03:14.509Z,2.70
2019-01-18T08:05:43.932Z,2.80
2019-01-18T08:08:13.348Z,2.80
2019-01-18T08:10:42.750Z,2.80
2019-01-18T08:13:12.119Z,2.80
2019-01-18T08:15:41.490Z,2.80
2019-01-18T08:18:11.028Z,2.80
2019-01-18T08:20:40.441Z,2.80
2019-01-18T08:23:11.128Z,2.90
2019-01-18T08:25:40.619Z,2.90
2019-01-18T08:28:10.013Z,3.00
2019-01-18T08:30:39.399Z,3.00
2019-01-18T08:33:08.825Z,3.00
2019-01-18T08:35:38.180Z,3.10
2019-01-18T08:38:07.754Z,3.10
2019-01-18T08:40:39.356Z,3.20
2019-01-18T08:43:13.893Z,3.20
2019-01-18T08:46:04.409Z,3.20
2019-01-18T08:48:33.872Z,3.10
2019-01-18T08:51:03.911Z,3.10
2019-01-18T08:53:33.396Z,3.20
2019-01-18T08:56:03.996Z,3.20
2019-01-18T08:58:33.351Z,3.20
2019-01-18T09:01:04.081Z,3.30
2019-01-18T09:03:33.460Z,3.30
2019-01-18T09:06:02.837Z,3.40
2019-01-18T09:08:32.593Z,3.50
2019-01-18T09:11:01.995Z,3.60
2019-01-18T09:13:32.558Z,3.60
2019-01-18T09:16:02.728Z,3.50
2019-01-18T09:18:32.754Z,3.60
2019-01-18T09:21:02.403Z,3.60
2019-01-18T09:23:31.820Z,3.70
2019-01-18T09:26:01.234Z,3.60
2019-01-18T09:28:30.657Z,3.60
2019-01-18T09:31:00.211Z,3.60
2019-01-18T09:33:29.670Z,3.60
2019-01-18T09:35:59.060Z,3.50
2019-01-18T09:38:28.419Z,3.50
2019-01-18T09:40:57.906Z,3.60
2019-01-18T09:43:27.407Z,3.80
2019-01-18T09:45:57.610Z,3.90
2019-01-18T09:48:27.015Z,4.00
2019-01-18T09:50:56.400Z,4.00
2019-01-18T09:53:25.786Z,3.90
2019-01-18T09:55:58.314Z,3.90
2019-01-18T09:58:27.719Z,4.00
2019-01-18T10:00:57.238Z,3.90
2019-01-18T10:03:26.741Z,3.90
2019-01-18T10:05:56.312Z,3.90
2019-01-18T10:08:25.700Z,4.00
2019-01-18T10:10:55.211Z,4.00
2019-01-18T10:13:27.877Z,4.00
2019-01-18T10:16:00.236Z,4.00
2019-01-18T10:18:29.661Z,3.90
2019-01-18T10:20:59.010Z,3.80
2019-01-18T10:23:28.453Z,3.80
2019-01-18T10:25:57.887Z,3.80
2019-01-18T10:28:27.350Z,3.90
2019-01-18T10:30:56.715Z,4.00
2019-01-18T10:33:26.092Z,4.00
2019-01-18T10:35:55.778Z,4.00
2019-01-18T10:38:28.033Z,4.00
2019-01-18T10:40:57.479Z,4.00
2019-01-18T10:43:28.656Z,3.90
2019-01-18T10:45:58.116Z,3.90
2019-01-18T10:48:27.738Z,4.00
2019-01-18T10:50:57.130Z,4.10
2019-01-18T10:53:26.603Z,4.10
2019-01-18T10:55:56.214Z,4.10
2019-01-18T10:58:25.658Z,4.10
2019-01-18T11:00:55.070Z,4.30
2019-01-18T11:03:24.491Z,4.40
2019-01-18T11:05:54.079Z,4.40
2019-01-18T11:08:23.561Z,4.50
2019-01-18T11:10:53.030Z,4.50
2019-01-18T11:13:27.354Z,4.60
2019-01-18T11:15:56.900Z,4.60
2019-01-18T11:18:26.363Z,4.60
2019-01-18T11:21:10.263Z,4.60
2019-01-18T11:23:39.714Z,4.50
2019-01-18T11:26:09.492Z,4.50
2019-01-18T11:28:40.129Z,4.40
2019-01-18T11:31:09.536Z,4.40
2019-01-18T11:33:39.091Z,4.30
2019-01-18T11:36:08.547Z,4.30
2019-01-18T11:38:38.310Z,4.30
2019-01-18T11:41:07.757Z,4.30
2019-01-18T11:43:37.190Z,4.40
2019-01-18T11:46:06.700Z,4.40
2019-01-18T11:48:36.263Z,4.40
2019-01-18T11:51:05.676Z,4.50
2019-01-18T11:53:35.076Z,4.60
2019-01-18T11:56:04.664Z,4.70
2019-01-18T11:58:34.197Z,4.60
2019-01-18T12:01:03.593Z,4.70
2019-01-18T12:03:32.960Z,4.90
2019-01-18T12:06:02.336Z,5.00
2019-01-18T12:08:31.883Z,5.10
2019-01-18T12:11:01.372Z,5.00
2019-01-18T12:13:30.759Z,5.00
2019-01-18T12:16:00.148Z,5.00
2019-01-18T12:18:29.584Z,5.00
2019-01-18T12:20:59.162Z,5.10
2019-01-18T12:23:28.513Z,5.10
2019-01-18T12:25:57.937Z,5.10
2019-01-18T12:28:27.414Z,5.10
2019-01-18T12:30:57.127Z,5.10
2019-01-18T12:33:26.527Z,5.20
2019-01-18T12:35:55.998Z,5.20
2019-01-18T12:38:25.627Z,5.20
2019-01-18T12:40:54.959Z,5.20
2019-01-18T12:43:24.432Z,5.20
2019-01-18T12:45:53.843Z,5.20
2019-01-18T12:48:23.287Z,5.20
2019-01-18T12:50:52.721Z,5.20
2019-01-18T12:53:22.170Z,5.20
2019-01-18T12:55:51.658Z,5.30
2019-01-18T12:58:21.524Z,5.30
2019-01-18T13:00:50.894Z,5.30
2019-01-18T13:03:20.329Z,5.30
2019-01-18T13:05:51.488Z,5.30
2019-01-18T13:08:20.911Z,5.30
2019-01-18T13:10:50.374Z,5.30
2019-01-18T13:13:19.853Z,5.30
2019-01-18T13:16:21.943Z,5.30
2019-01-18T13:18:56.785Z,5.40
2019-01-18T13:21:26.328Z,5.40
2019-01-18T13:23:55.816Z,5.40
2019-01-18T13:26:26.998Z,5.40
2019-01-18T13:28:56.435Z,5.40
2019-01-18T13:31:26.006Z,5.40
2019-01-18T13:34:03.285Z,5.40
2019-01-18T13:36:34.189Z,5.40
2019-01-18T13:39:05.214Z,5.50
2019-01-18T13:41:36.681Z,5.50
2019-01-18T13:44:06.190Z,5.50
2019-01-18T13:46:35.552Z,5.50
2019-01-18T13:49:05.371Z,5.40
2019-01-18T13:51:34.867Z,5.50
2019-01-18T13:54:06.651Z,5.40
2019-01-18T13:56:36.309Z,5.40
2019-01-18T13:59:05.685Z,5.30
2019-01-18T14:01:35.399Z,5.30
2019-01-18T14:04:04.826Z,5.30
2019-01-18T14:06:34.566Z,5.20
2019-01-18T14:09:05.444Z,5.30
2019-01-18T14:11:35.090Z,5.30
2019-01-18T14:14:05.577Z,5.20
2019-01-18T14:16:35.076Z,5.30
2019-01-18T14:19:04.820Z,5.30
2019-01-18T14:21:34.253Z,5.30
2019-01-18T14:24:04.927Z,5.40
2019-01-18T14:26:34.336Z,5.30
2019-01-18T14:29:03.990Z,5.20
2019-01-18T14:31:33.488Z,5.20
2019-01-18T14:34:03.012Z,5.20
2019-01-18T14:36:32.466Z,5.20
2019-01-18T14:39:01.927Z,5.20
2019-01-18T14:41:31.685Z,5.20
2019-01-18T14:44:01.071Z,5.10
2019-01-18T14:46:30.563Z,5.10
2019-01-18T14:49:00.022Z,5.10
2019-01-18T14:51:29.602Z,5.10
2019-01-18T14:54:00.056Z,5.10
2019-01-18T14:56:29.628Z,5.00
2019-01-18T14:58:59.138Z,5.10
2019-01-18T15:01:28.833Z,5.00
2019-01-18T15:03:58.487Z,4.90
2019-01-18T15:06:29.870Z,4.90
2019-01-18T15:08:59.275Z,4.90
2019-01-18T15:11:28.712Z,5.00
2019-01-18T15:13:58.307Z,5.30
2019-01-18T15:16:27.677Z,5.50
2019-01-18T15:18:57.061Z,5.50
2019-01-18T15:21:26.451Z,5.50
2019-01-18T15:23:57.163Z,5.40
2019-01-18T15:26:26.689Z,5.30
2019-01-18T15:28:56.169Z,5.30
2019-01-18T15:31:25.815Z,5.20
2019-01-18T15:33:56.372Z,5.20
2019-01-18T15:36:27.111Z,5.20
2019-01-18T15:38:56.720Z,5.10
2019-01-18T15:41:26.120Z,5.10
2019-01-18T15:43:55.707Z,5.00
2019-01-18T15:46:25.196Z,4.90
2019-01-18T15:48:57.260Z,4.90
2019-01-18T15:51:26.620Z,4.80
2019-01-18T15:53:56.490Z,4.70
2019-01-18T15:56:25.907Z,4.60
2019-01-18T15:58:55.378Z,4.50
2019-01-18T16:01:24.878Z,4.40
2019-01-18T16:03:54.391Z,4.30
2019-01-18T16:06:23.827Z,4.10
2019-01-18T16:08:53.239Z,4.00
2019-01-18T16:11:22.614Z,3.90
2019-01-18T16:13:52.218Z,3.90
2019-01-18T16:16:38.220Z,3.80
2019-01-18T16:19:07.673Z,3.90
2019-01-18T16:21:37.103Z,3.90
2019-01-18T16:24:06.789Z,3.90
2019-01-18T16:26:36.334Z,3.80
2019-01-18T16:29:05.768Z,3.80
2019-01-18T16:31:35.467Z,3.70
2019-01-18T16:34:04.911Z,3.60
2019-01-18T16:36:36.954Z,3.50
2019-01-18T16:39:09.606Z,3.50
2019-01-18T16:41:39.206Z,3.40
2019-01-18T16:44:08.636Z,3.30
2019-01-18T16:46:38.265Z,3.20
2019-01-18T16:49:07.742Z,3.20
2019-01-18T16:51:37.236Z,3.20
2019-01-18T16:54:06.795Z,3.20
2019-01-18T16:56:36.418Z,3.10
2019-01-18T16:59:06.037Z,3.10
2019-01-18T17:01:35.549Z,3.10
2019-01-18T17:04:05.153Z,3.10
2019-01-18T17:06:34.618Z,3.00
2019-01-18T17:09:06.823Z,3.00
2019-01-18T17:11:36.489Z,3.00
2019-01-18T17:14:05.964Z,3.00
2019-01-18T17:16:35.388Z,3.00
2019-01-18T17:19:05.030Z,3.00
2019-01-18T17:21:34.504Z,2.90
2019-01-18T17:24:03.999Z,2.90
2019-01-18T17:26:33.450Z,2.90
2019-01-18T17:29:03.373Z,2.90
2019-01-18T17:31:32.737Z,2.90
2019-01-18T17:34:02.338Z,2.90
2019-01-18T17:36:35.719Z,2.80
2019-01-18T17:39:44.273Z,2.80
2019-01-18T17:43:03.564Z,2.80
2019-01-18T17:46:12.128Z,2.70
2019-01-18T17:49:31.326Z,2.70
2019-01-18T17:52:25.826Z,2.70
2019-01-18T17:55:20.763Z,2.60
2019-01-18T17:58:33.910Z,2.60
2019-01-18T18:01:38.584Z,2.50
2019-01-18T18:04:32.312Z,2.50
2019-01-18T18:07:39.858Z,2.50
2019-01-18T18:10:22.174Z,2.50
2019-01-18T18:13:38.307Z,2.50
2019-01-18T18:16:34.176Z,2.40
2019-01-18T18:19:36.530Z,2.40
2019-01-18T18:22:59.125Z,2.40
2019-01-18T18:25:46.062Z,2.30
2019-01-18T18:28:50.708Z,2.30
2019-01-18T18:32:09.945Z,2.30
2019-01-18T18:35:16.570Z,2.30
2019-01-18T18:38:23.313Z,2.30
2019-01-18T18:41:27.048Z,2.30
2019-01-18T18:44:25.577Z,2.20
2019-01-18T18:47:46.022Z,2.20
2019-01-18T18:50:58.178Z,2.20
2019-01-18T18:53:45.047Z,2.20
2019-01-18T18:56:52.576Z,2.20
2019-01-18T18:59:32.938Z,2.20
2019-01-18T19:02:11.943Z,2.10
2019-01-18T19:05:05.246Z,2.10
2019-01-18T19:08:15.786Z,2.00
2019-01-18T19:11:05.341Z,2.00
2019-01-18T19:14:10.151Z,2.00
2019-01-18T19:17:07.828Z,2.00
2019-01-18T19:20:35.899Z,2.00
2019-01-18T19:23:52.578Z,2.00
2019-01-18T19:27:12.568Z,2.00
2019-01-18T19:30:21.464Z,2.10
2019-01-18T19:33:05.037Z,2.10
2019-01-18T19:35:47.598Z,2.00
2019-01-18T19:38:58.130Z,2.10
2019-01-18T19:41:45.501Z,2.10
2019-01-18T19:44:53.398Z,2.00
2019-01-18T19:48:00.297Z,2.00
2019-01-18T19:51:21.763Z,2.10
2019-01-18T19:54:22.970Z,2.00
2019-01-18T19:57:47.254Z,2.00
2019-01-18T20:00:38.267Z,2.00
2019-01-18T20:03:35.352Z,1.90
2019-01-18T20:06:40.217Z,1.90
2019-01-18T20:09:29.666Z,1.90
2019-01-18T20:12:12.720Z,1.90
2019-01-18T20:15:14.671Z,1.90
2019-01-18T20:18:16.512Z,1.90
2019-01-18T20:21:27.532Z,1.90
2019-01-18T20:24:47.156Z,1.80
2019-01-18T20:27:57.359Z,1.80
2019-01-18T20:30:54.518Z,1.80
2019-01-18T20:34:18.293Z,1.80
2019-01-18T20:37:13.357Z,1.80
2019-01-18T20:40:00.272Z,1.80
2019-01-18T20:42:49.925Z,1.80
2019-01-18T20:45:58.328Z,1.80
2019-01-18T20:49:04.336Z,1.80
2019-01-18T20:52:10.458Z,1.80
2019-01-18T20:55:07.339Z,1.80
2019-01-18T20:57:53.375Z,1.80
2019-01-18T21:01:03.262Z,1.80
2019-01-18T21:04:04.206Z,1.80
2019-01-18T21:07:16.442Z,1.70
2019-01-18T21:10:12.245Z,1.70
2019-01-18T21:13:16.701Z,1.80
2019-01-18T21:16:22.212Z,1.80
2019-01-18T21:19:20.482Z,1.80
2019-01-18T21:22:45.897Z,1.80
2019-01-18T21:25:32.609Z,1.80
2019-01-18T21:28:41.884Z,1.80
2019-01-18T21:31:42.765Z,1.80
2019-01-18T21:34:47.739Z,1.80
2019-01-18T21:38:08.120Z,1.80
2019-01-18T21:41:12.086Z,1.80
2019-01-18T21:44:16.983Z,1.70
2019-01-18T21:47:26.035Z,1.70
2019-01-18T21:50:13.361Z,1.70
2019-01-18T21:53:18.738Z,1.70
2019-01-18T21:56:38.475Z,1.60
2019-01-18T21:59:47.593Z,1.60
2019-01-18T22:03:01.274Z,1.60
2019-01-18T22:06:10.295Z,1.60
2019-01-18T22:08:53.652Z,1.60
2019-01-18T22:11:57.612Z,1.60
2019-01-18T22:14:51.924Z,1.60
2019-01-18T22:17:56.723Z,1.60
2019-01-18T22:20:48.227Z,1.50
2019-01-18T22:23:42.651Z,1.50
2019-01-18T22:26:36.614Z,1.40
2019-01-18T22:29:37.521Z,1.40
2019-01-18T22:32:21.959Z,1.40
2019-01-18T22:35:34.320Z,1.30
2019-01-18T22:38:32.806Z,1.30
2019-01-18T22:41:24.871Z,1.30
2019-01-18T22:44:31.166Z,1.20
2019-01-18T22:47:48.274Z,1.20
2019-01-18T22:50:38.485Z,1.20
2019-01-18T22:53:55.305Z,1.30
2019-01-18T22:56:57.215Z,1.20
2019-01-18T23:00:35.960Z,1.20
2019-01-18T23:03:34.753Z,1.30
2019-01-18T23:06:32.863Z,1.20
2019-01-18T23:09:26.791Z,1.20
2019-01-18T23:12:31.201Z,1.20
2019-01-18T23:15:39.553Z,1.20
2019-01-18T23:18:40.689Z,1.20
2019-01-18T23:22:09.312Z,1.20
2019-01-18T23:25:10.975Z,1.10
2019-01-18T23:28:23.368Z,1.10
2019-01-18T23:31:29.917Z,1.10
2019-01-18T23:34:19.276Z,1.10
2019-01-18T23:37:08.472Z,1.10
2019-01-18T23:40:27.686Z,1.20
2019-01-18T23:43:28.280Z,1.20
2019-01-18T23:46:26.565Z,1.20
2019-01-18T23:49:31.137Z,1.20
2019-01-18T23:52:44.807Z,1.20
2019-01-18T23:55:45.753Z,1.10
2019-01-18T23:58:42.630Z,1.10
